createdAt,value
2018-10-01T00:00:17.880Z,60.28
2018-10-01T00:02:46.528Z,60.00
2018-10-01T00:05:15.112Z,59.58
2018-10-01T00:07:43.973Z,59.31
2018-10-01T00:10:12.601Z,59.21
2018-10-01T00:12:41.219Z,59.73
2018-10-01T00:15:09.949Z,59.51
2018-10-01T00:17:38.563Z,58.89
2018-10-01T00:20:12.608Z,59.24
2018-10-01T00:22:48.627Z,59.12
2018-10-01T00:25:17.677Z,58.53
2018-10-01T00:27:46.447Z,58.53
2018-10-01T00:30:15.094Z,58.35
2018-10-01T00:32:43.855Z,57.72
2018-10-01T00:35:12.484Z,57.03
2018-10-01T00:37:41.301Z,56.61
2018-10-01T00:40:10.054Z,56.67
2018-10-01T00:42:39.023Z,56.50
2018-10-01T00:45:08.439Z,55.83
2018-10-01T00:47:37.195Z,55.86
2018-10-01T00:50:05.836Z,55.74
2018-10-01T00:52:34.416Z,55.68
2018-10-01T00:55:03.095Z,54.36
2018-10-01T00:57:31.907Z,54.80
2018-10-01T01:00:00.500Z,54.24
2018-10-01T01:02:29.114Z,53.61
2018-10-01T01:04:57.701Z,53.49
2018-10-01T01:07:26.309Z,53.81
2018-10-01T01:09:55.008Z,53.03
2018-10-01T01:12:23.596Z,52.36
2018-10-01T01:14:52.184Z,51.62
2018-10-01T01:17:20.823Z,51.78
2018-10-01T01:19:49.397Z,50.47
2018-10-01T01:22:18.008Z,50.09
2018-10-01T01:24:46.696Z,50.13
2018-10-01T01:27:15.270Z,49.77
2018-10-01T01:29:43.863Z,49.26
2018-10-01T01:32:12.540Z,49.74
2018-10-01T01:34:41.148Z,49.54
2018-10-01T01:37:09.929Z,48.99
2018-10-01T01:39:38.760Z,49.10
2018-10-01T01:42:07.428Z,48.96
2018-10-01T01:44:36.060Z,48.62
2018-10-01T01:47:04.676Z,48.42
2018-10-01T01:49:33.277Z,47.75
2018-10-01T01:52:01.956Z,48.50
2018-10-01T01:54:30.559Z,48.03
2018-10-01T01:56:59.308Z,47.88
2018-10-01T01:59:27.927Z,47.52
2018-10-01T02:01:56.640Z,47.42
2018-10-01T02:04:25.270Z,47.84
2018-10-01T02:06:53.849Z,47.52
2018-10-01T02:09:22.842Z,47.04
2018-10-01T02:11:51.416Z,47.21
2018-10-01T02:14:19.991Z,47.13
2018-10-01T02:16:48.697Z,47.74
2018-10-01T02:19:17.341Z,48.14
2018-10-01T02:21:45.940Z,48.05
2018-10-01T02:24:14.687Z,47.14
2018-10-01T02:26:43.523Z,47.78
2018-10-01T02:29:12.459Z,47.72
2018-10-01T02:31:41.184Z,46.86
2018-10-01T02:34:10.187Z,45.73
2018-10-01T02:36:38.757Z,46.12
2018-10-01T02:39:10.977Z,45.41
2018-10-01T02:41:39.612Z,45.55
2018-10-01T02:44:08.212Z,45.64
2018-10-01T02:46:37.200Z,44.73
2018-10-01T02:49:05.820Z,46.04
2018-10-01T02:51:39.668Z,45.77
2018-10-01T02:54:13.700Z,45.86
2018-10-01T02:56:42.376Z,45.51
2018-10-01T02:59:11.002Z,45.15
2018-10-01T03:01:39.595Z,45.91
2018-10-01T03:04:08.257Z,45.90
2018-10-01T03:06:36.860Z,45.35
2018-10-01T03:09:09.271Z,45.42
2018-10-01T03:11:38.163Z,46.24
2018-10-01T03:14:06.802Z,45.95
2018-10-01T03:16:35.935Z,45.53
2018-10-01T03:19:04.876Z,46.35
2018-10-01T03:21:33.452Z,45.91
2018-10-01T03:24:02.166Z,45.83
2018-10-01T03:26:30.762Z,45.80
2018-10-01T03:28:59.351Z,45.65
2018-10-01T03:31:28.188Z,45.65
2018-10-01T03:33:56.940Z,45.63
2018-10-01T03:36:26.232Z,45.92
2018-10-01T03:38:54.984Z,45.07
2018-10-01T03:41:23.592Z,45.62
2018-10-01T03:43:52.192Z,45.15
2018-10-01T03:46:21.019Z,45.05
2018-10-01T03:48:49.623Z,45.19
2018-10-01T03:51:18.213Z,44.78
2018-10-01T03:53:46.887Z,44.68
2018-10-01T03:56:15.464Z,44.98
2018-10-01T03:58:44.048Z,45.21
2018-10-01T04:01:12.819Z,45.05
2018-10-01T04:03:41.409Z,44.38
2018-10-01T04:06:09.999Z,44.71
2018-10-01T04:08:38.689Z,44.65
2018-10-01T04:11:07.389Z,44.45
2018-10-01T04:13:35.992Z,44.73
2018-10-01T04:16:05.076Z,44.72
2018-10-01T04:18:33.932Z,44.71
2018-10-01T04:21:02.519Z,44.71
2018-10-01T04:23:31.140Z,44.72
2018-10-01T04:25:59.716Z,44.99
2018-10-01T04:28:28.289Z,44.37
2018-10-01T04:30:56.907Z,44.70
2018-10-01T04:33:25.517Z,45.00
2018-10-01T04:35:54.087Z,44.55
2018-10-01T04:38:22.767Z,44.38
2018-10-01T04:40:51.510Z,44.62
2018-10-01T04:43:20.000Z,44.50
2018-10-01T04:45:48.703Z,44.82
2018-10-01T04:48:17.315Z,44.65
2018-10-01T04:50:45.895Z,44.79
2018-10-01T04:53:14.576Z,45.40
2018-10-01T04:55:43.162Z,44.95
2018-10-01T04:58:11.780Z,44.71
2018-10-01T05:00:40.452Z,45.09
2018-10-01T05:03:09.036Z,45.28
2018-10-01T05:05:37.613Z,45.38
2018-10-01T05:08:06.833Z,44.86
2018-10-01T05:10:35.619Z,45.00
2018-10-01T05:13:04.240Z,44.89
2018-10-01T05:15:32.996Z,45.23
2018-10-01T05:18:01.579Z,44.44
2018-10-01T05:20:30.274Z,44.97
2018-10-01T05:22:59.007Z,45.08
2018-10-01T05:25:27.591Z,44.86
2018-10-01T05:27:56.259Z,44.94
2018-10-01T05:30:25.016Z,45.69
2018-10-01T05:32:53.995Z,45.90
2018-10-01T05:35:22.640Z,45.91
2018-10-01T05:37:51.571Z,46.03
2018-10-01T05:40:20.145Z,46.29
2018-10-01T05:42:48.796Z,46.33
2018-10-01T05:45:17.416Z,46.53
2018-10-01T05:47:46.004Z,46.25
2018-10-01T05:50:14.588Z,46.67
2018-10-01T05:52:43.276Z,46.86
2018-10-01T05:55:11.885Z,47.25
2018-10-01T05:57:40.503Z,46.95
2018-10-01T06:00:09.125Z,47.42
2018-10-01T06:02:37.706Z,47.57
2018-10-01T06:05:06.704Z,47.74
2018-10-01T06:07:35.324Z,47.62
2018-10-01T06:10:03.974Z,47.49
2018-10-01T06:12:32.560Z,48.34
2018-10-01T06:15:01.261Z,47.91
2018-10-01T06:17:30.126Z,47.63
2018-10-01T06:19:59.740Z,47.79
2018-10-01T06:22:29.855Z,47.61
2018-10-01T06:24:58.452Z,47.90
2018-10-01T06:27:27.056Z,47.85
2018-10-01T06:29:56.570Z,48.43
2018-10-01T06:32:25.506Z,48.71
2018-10-01T06:34:54.127Z,48.60
2018-10-01T06:37:23.036Z,48.98
2018-10-01T06:39:51.660Z,49.16
2018-10-01T06:42:20.746Z,48.76
2018-10-01T06:44:50.219Z,48.88
2018-10-01T06:47:19.761Z,49.47
2018-10-01T06:49:49.540Z,49.63
2018-10-01T06:52:18.228Z,49.78
2018-10-01T06:54:47.199Z,49.67
2018-10-01T06:57:15.807Z,50.55
2018-10-01T06:59:45.669Z,49.80
2018-10-01T07:02:14.308Z,49.87
2018-10-01T07:04:42.949Z,50.37
2018-10-01T07:07:12.340Z,50.32
2018-10-01T07:09:41.458Z,50.21
2018-10-01T07:12:10.928Z,50.66
2018-10-01T07:14:40.070Z,50.63
2018-10-01T07:17:09.977Z,50.77
2018-10-01T07:19:39.933Z,50.75
2018-10-01T07:22:09.593Z,50.62
2018-10-01T07:24:38.236Z,51.11
2018-10-01T07:27:07.011Z,50.89
2018-10-01T07:29:35.607Z,50.77
2018-10-01T07:32:04.208Z,50.91
2018-10-01T07:34:33.119Z,51.00
2018-10-01T07:37:01.741Z,50.93
2018-10-01T07:39:30.404Z,51.58
2018-10-01T07:41:59.044Z,50.93
2018-10-01T07:44:27.623Z,50.86
2018-10-01T07:46:56.224Z,51.28
2018-10-01T07:49:24.976Z,51.72
2018-10-01T07:51:53.638Z,51.76
2018-10-01T07:54:22.297Z,51.60
2018-10-01T07:56:50.983Z,51.94
2018-10-01T07:59:19.613Z,51.98
2018-10-01T08:01:48.206Z,52.99
2018-10-01T08:04:16.862Z,52.13
2018-10-01T08:06:45.450Z,52.55
2018-10-01T08:09:14.039Z,52.53
2018-10-01T08:11:42.661Z,52.45
2018-10-01T08:14:11.323Z,52.81
2018-10-01T08:16:40.287Z,52.31
2018-10-01T08:19:08.931Z,52.38
2018-10-01T08:21:37.536Z,52.30
2018-10-01T08:24:06.605Z,52.20
2018-10-01T08:26:35.249Z,52.22
2018-10-01T08:29:03.904Z,53.08
2018-10-01T08:31:32.935Z,52.23
2018-10-01T08:34:02.022Z,52.67
2018-10-01T08:36:30.596Z,52.54
2018-10-01T08:38:59.278Z,51.93
2018-10-01T08:41:28.313Z,52.58
2018-10-01T08:43:56.986Z,52.78
2018-10-01T08:46:25.557Z,52.15
2018-10-01T08:49:32.424Z,52.10
2018-10-01T08:52:05.096Z,52.48
2018-10-01T08:54:36.908Z,52.09
2018-10-01T08:57:06.044Z,52.86
2018-10-01T08:59:34.994Z,52.42
2018-10-01T09:02:05.087Z,52.54
2018-10-01T09:04:34.255Z,52.70
2018-10-01T09:07:03.345Z,52.06
2018-10-01T09:09:32.028Z,52.01
2018-10-01T09:12:00.616Z,52.19
2018-10-01T09:14:29.266Z,52.68
2018-10-01T09:16:57.922Z,52.75
2018-10-01T09:19:26.526Z,53.09
2018-10-01T09:21:55.131Z,53.01
2018-10-01T09:24:23.872Z,52.02
2018-10-01T09:26:52.443Z,53.00
2018-10-01T09:29:21.053Z,52.36
2018-10-01T09:31:49.772Z,51.60
2018-10-01T09:34:18.391Z,51.54
2018-10-01T09:36:47.000Z,51.67
2018-10-01T09:39:15.794Z,51.10
2018-10-01T09:41:44.408Z,51.42
2018-10-01T09:44:13.094Z,51.46
2018-10-01T09:46:41.755Z,51.24
2018-10-01T09:49:10.354Z,50.64
2018-10-01T09:51:38.964Z,51.08
2018-10-01T09:54:07.724Z,50.16
2018-10-01T09:56:36.376Z,50.25
2018-10-01T09:59:04.915Z,50.79
2018-10-01T10:01:33.601Z,50.32
2018-10-01T10:04:02.323Z,50.02
2018-10-01T10:06:30.856Z,49.63
2018-10-01T10:08:59.711Z,50.22
2018-10-01T10:11:28.418Z,50.15
2018-10-01T10:13:56.973Z,49.95
2018-10-01T10:16:25.790Z,50.27
2018-10-01T10:18:54.327Z,50.54
2018-10-01T10:21:22.984Z,50.17
2018-10-01T10:23:51.743Z,49.34
2018-10-01T10:26:20.404Z,49.67
2018-10-01T10:28:48.981Z,49.34
2018-10-01T10:31:17.621Z,49.11
2018-10-01T10:33:46.215Z,48.63
2018-10-01T10:36:14.783Z,48.95
2018-10-01T10:38:43.405Z,49.11
2018-10-01T10:41:12.005Z,47.57
2018-10-01T10:43:40.609Z,48.16
2018-10-01T10:46:09.705Z,47.83
2018-10-01T10:48:38.292Z,47.73
2018-10-01T10:51:06.899Z,47.49
2018-10-01T10:53:35.596Z,47.24
2018-10-01T10:56:04.251Z,46.85
2018-10-01T10:58:32.832Z,46.82
2018-10-01T11:01:01.889Z,47.22
2018-10-01T11:03:30.477Z,47.07
2018-10-01T11:05:59.096Z,45.65
2018-10-01T11:08:27.739Z,45.66
2018-10-01T11:10:56.323Z,46.32
2018-10-01T11:13:25.007Z,45.10
2018-10-01T11:15:53.676Z,45.40
2018-10-01T11:18:22.291Z,44.38
2018-10-01T11:20:51.362Z,44.61
2018-10-01T11:23:20.310Z,43.85
2018-10-01T11:25:48.891Z,41.61
2018-10-01T11:28:17.520Z,41.07
2018-10-01T11:30:46.203Z,41.77
2018-10-01T11:33:15.237Z,42.43
2018-10-01T11:35:43.800Z,41.57
2018-10-01T11:38:12.516Z,43.05
2018-10-01T11:40:41.185Z,42.75
2018-10-01T11:43:09.868Z,42.47
2018-10-01T11:45:38.550Z,43.27
2018-10-01T11:48:07.136Z,43.50
2018-10-01T11:50:35.762Z,44.92
2018-10-01T11:53:04.917Z,44.75
2018-10-01T11:55:33.508Z,45.81
2018-10-01T11:58:02.576Z,45.22
2018-10-01T12:00:31.307Z,45.32
2018-10-01T12:03:00.001Z,43.65
2018-10-01T12:05:28.516Z,42.75
2018-10-01T12:07:57.164Z,43.22
2018-10-01T12:10:25.785Z,43.37
2018-10-01T12:12:54.548Z,43.15
2018-10-01T12:15:23.695Z,43.41
2018-10-01T12:17:52.269Z,43.11
2018-10-01T12:20:20.868Z,43.85
2018-10-01T12:22:49.617Z,42.41
2018-10-01T12:25:18.260Z,42.57
2018-10-01T12:27:46.908Z,42.68
2018-10-01T12:30:15.528Z,41.27
2018-10-01T12:32:44.149Z,40.34
2018-10-01T12:35:12.774Z,40.28
2018-10-01T12:37:41.444Z,39.81
2018-10-01T12:40:10.279Z,39.46
2018-10-01T12:42:38.946Z,39.67
2018-10-01T12:45:08.162Z,39.80
2018-10-01T12:47:37.063Z,40.89
2018-10-01T12:50:05.771Z,40.50
2018-10-01T12:52:34.396Z,39.88
2018-10-01T12:55:03.025Z,40.69
2018-10-01T12:57:31.647Z,40.41
2018-10-01T13:00:00.326Z,40.78
2018-10-01T13:02:28.912Z,39.93
2018-10-01T13:04:58.063Z,38.79
2018-10-01T13:07:27.127Z,38.77
2018-10-01T13:09:55.721Z,40.01
2018-10-01T13:12:24.339Z,38.25
2018-10-01T13:14:52.969Z,38.77
2018-10-01T13:17:21.564Z,39.18
2018-10-01T13:19:50.156Z,39.34
2018-10-01T13:22:18.797Z,39.96
2018-10-01T13:24:47.494Z,40.02
2018-10-01T13:27:16.105Z,39.57
2018-10-01T13:29:45.060Z,41.81
2018-10-01T13:32:13.739Z,44.76
2018-10-01T13:34:42.347Z,54.23
2018-10-01T13:37:11.088Z,54.96
2018-10-01T13:39:39.728Z,54.69
2018-10-01T13:42:08.624Z,57.06
2018-10-01T13:44:37.421Z,58.41
2018-10-01T13:47:05.849Z,57.88
2018-10-01T13:49:34.905Z,59.23
2018-10-01T13:52:03.998Z,59.50
2018-10-01T13:54:32.588Z,59.19
2018-10-01T13:57:01.212Z,59.57
2018-10-01T13:59:29.921Z,59.18
2018-10-01T14:01:58.589Z,59.41
2018-10-01T14:04:27.699Z,59.25
2018-10-01T14:06:56.393Z,58.81
2018-10-01T14:09:24.951Z,58.02
2018-10-01T14:11:53.531Z,58.24
2018-10-01T14:14:22.691Z,57.04
2018-10-01T14:16:51.737Z,57.17
2018-10-01T14:19:20.756Z,57.05
2018-10-01T14:21:49.371Z,57.26
2018-10-01T14:24:18.191Z,56.31
2018-10-01T14:26:46.775Z,57.02
2018-10-01T14:29:15.668Z,57.14
2018-10-01T14:31:44.240Z,55.81
2018-10-01T14:34:13.015Z,55.43
2018-10-01T14:36:42.465Z,55.28
2018-10-01T14:39:12.165Z,54.63
2018-10-01T14:41:41.002Z,53.96
2018-10-01T14:44:10.320Z,53.57
2018-10-01T14:46:38.908Z,54.06
2018-10-01T14:49:07.912Z,52.65
2018-10-01T14:51:37.120Z,52.23
2018-10-01T14:54:05.775Z,52.41
2018-10-01T14:56:34.580Z,52.17
2018-10-01T14:59:03.261Z,51.64
2018-10-01T15:01:31.856Z,51.59
2018-10-01T15:04:00.472Z,51.72
2018-10-01T15:06:29.117Z,51.31
2018-10-01T15:08:57.743Z,51.47
2018-10-01T15:11:26.340Z,51.37
2018-10-01T15:13:55.571Z,50.34
2018-10-01T15:16:24.720Z,51.27
2018-10-01T15:18:53.826Z,49.92
2018-10-01T15:21:23.448Z,48.97
2018-10-01T15:23:52.047Z,48.20
2018-10-01T15:26:20.772Z,48.59
2018-10-01T15:28:49.534Z,48.97
2018-10-01T15:31:18.128Z,46.44
2018-10-01T15:33:46.740Z,47.49
2018-10-01T15:36:15.603Z,46.15
2018-10-01T15:38:44.093Z,45.97
2018-10-01T15:41:12.689Z,45.10
2018-10-01T15:43:41.413Z,44.86
2018-10-01T15:46:10.007Z,45.08
2018-10-01T15:48:38.680Z,45.61
2018-10-01T15:51:07.431Z,47.85
2018-10-01T15:53:36.495Z,48.67
2018-10-01T15:56:05.132Z,52.62
2018-10-01T15:58:33.759Z,54.99
2018-10-01T16:01:02.363Z,54.67
2018-10-01T16:03:30.960Z,57.10
2018-10-01T16:05:59.664Z,57.33
2018-10-01T16:08:28.255Z,55.67
2018-10-01T16:10:56.876Z,55.27
2018-10-01T16:13:25.844Z,54.36
2018-10-01T16:15:55.272Z,55.45
2018-10-01T16:18:24.600Z,55.06
2018-10-01T16:20:53.843Z,53.93
2018-10-01T16:23:22.545Z,54.48
2018-10-01T16:25:51.206Z,54.89
2018-10-01T16:28:19.984Z,55.12
2018-10-01T16:30:48.831Z,54.38
2018-10-01T16:33:18.004Z,54.34
2018-10-01T16:35:47.183Z,54.54
2018-10-01T16:38:16.504Z,54.39
2018-10-01T16:40:46.256Z,54.54
2018-10-01T16:43:15.101Z,54.35
2018-10-01T16:45:43.903Z,54.11
2018-10-01T16:48:12.636Z,54.28
2018-10-01T16:50:41.390Z,54.28
2018-10-01T16:53:10.988Z,54.03
2018-10-01T16:55:39.956Z,53.45
2018-10-01T16:58:08.630Z,53.36
2018-10-01T17:00:37.271Z,53.49
2018-10-01T17:03:06.015Z,52.80
2018-10-01T17:05:34.608Z,52.86
2018-10-01T17:08:03.235Z,51.43
2018-10-01T17:10:32.433Z,52.18
2018-10-01T17:13:01.183Z,52.02
2018-10-01T17:15:29.842Z,52.93
2018-10-01T17:17:58.816Z,54.16
2018-10-01T17:20:27.911Z,56.15
2018-10-01T17:22:56.515Z,57.62
2018-10-01T17:25:25.369Z,58.64
2018-10-01T17:27:54.076Z,59.01
2018-10-01T17:30:22.782Z,58.87
2018-10-01T17:32:51.777Z,59.52
2018-10-01T17:35:20.566Z,60.19
2018-10-01T17:37:49.203Z,60.22
2018-10-01T17:40:17.872Z,60.13
2018-10-01T17:42:46.503Z,60.14
2018-10-01T17:45:15.152Z,59.47
2018-10-01T17:47:43.947Z,59.10
2018-10-01T17:50:13.647Z,58.92
2018-10-01T17:52:42.349Z,58.78
2018-10-01T17:55:11.116Z,58.40
2018-10-01T17:57:39.716Z,58.40
2018-10-01T18:00:08.941Z,58.28
2018-10-01T18:02:37.576Z,58.58
2018-10-01T18:05:06.733Z,58.99
2018-10-01T18:07:35.348Z,60.13
2018-10-01T18:10:04.432Z,59.83
2018-10-01T18:12:33.038Z,59.02
2018-10-01T18:15:01.634Z,58.80
2018-10-01T18:17:30.432Z,59.46
2018-10-01T18:19:59.012Z,58.35
2018-10-01T18:22:27.583Z,58.57
2018-10-01T18:24:57.364Z,59.39
2018-10-01T18:27:27.379Z,59.39
2018-10-01T18:29:58.459Z,59.19
2018-10-01T18:32:28.076Z,59.50
2018-10-01T18:34:57.840Z,59.59
2018-10-01T18:37:28.081Z,59.02
2018-10-01T18:39:57.155Z,58.61
2018-10-01T18:42:25.814Z,59.70
2018-10-01T18:44:54.503Z,59.95
2018-10-01T18:47:23.148Z,60.85
2018-10-01T18:49:51.808Z,59.76
2018-10-01T18:52:20.396Z,59.21
2018-10-01T18:54:49.512Z,59.15
2018-10-01T18:57:19.323Z,59.84
2018-10-01T18:59:49.469Z,59.62
2018-10-01T19:02:18.856Z,59.86
2018-10-01T19:04:49.866Z,57.92
2018-10-01T19:07:20.012Z,58.23
2018-10-01T19:09:51.003Z,59.36
2018-10-01T19:12:20.184Z,59.22
2018-10-01T19:14:50.018Z,57.26
2018-10-01T19:17:20.036Z,58.25
2018-10-01T19:19:50.838Z,59.30
2018-10-01T19:22:20.864Z,59.68
2018-10-01T19:24:51.498Z,59.81
2018-10-01T19:27:23.084Z,59.79
2018-10-01T19:29:52.451Z,60.16
2018-10-01T19:32:22.076Z,60.54
2018-10-01T19:34:53.716Z,60.88
2018-10-01T19:37:22.661Z,61.17
2018-10-01T19:39:53.412Z,61.01
2018-10-01T19:42:22.096Z,61.06
2018-10-01T19:44:51.014Z,61.10
2018-10-01T19:47:20.713Z,61.03
2018-10-01T19:49:49.994Z,60.51
2018-10-01T19:52:19.364Z,60.55
2018-10-01T19:54:48.796Z,60.28
2018-10-01T19:57:17.835Z,60.20
2018-10-01T19:59:46.736Z,60.30
2018-10-01T20:02:15.700Z,60.64
2018-10-01T20:04:44.309Z,60.19
2018-10-01T20:07:13.231Z,60.77
2018-10-01T20:09:45.256Z,61.11
2018-10-01T20:12:15.573Z,61.05
2018-10-01T20:14:44.922Z,61.45
2018-10-01T20:17:13.918Z,61.55
2018-10-01T20:19:43.771Z,61.30
2018-10-01T20:22:14.189Z,61.18
2018-10-01T20:24:42.943Z,60.80
2018-10-01T20:27:11.584Z,60.05
2018-10-01T20:29:40.326Z,59.23
2018-10-01T20:32:08.813Z,58.83
2018-10-01T20:34:37.460Z,58.34
2018-10-01T20:37:06.315Z,58.28
2018-10-01T20:39:34.919Z,57.90
2018-10-01T20:42:03.963Z,58.06
2018-10-01T20:44:32.604Z,57.43
2018-10-01T20:47:01.264Z,55.51
2018-10-01T20:49:29.848Z,55.80
2018-10-01T20:51:58.600Z,56.21
2018-10-01T20:54:27.172Z,57.04
2018-10-01T20:56:56.152Z,56.75
2018-10-01T20:59:25.250Z,57.06
2018-10-01T21:01:53.906Z,57.18
2018-10-01T21:04:22.476Z,57.26
2018-10-01T21:06:51.208Z,57.84
2018-10-01T21:09:19.856Z,57.39
2018-10-01T21:11:48.555Z,57.61
2018-10-01T21:14:17.465Z,58.15
2018-10-01T21:16:46.049Z,57.41
2018-10-01T21:19:14.648Z,57.83
2018-10-01T21:21:44.672Z,57.53
2018-10-01T21:24:13.236Z,58.29
2018-10-01T21:26:42.608Z,57.61
2018-10-01T21:29:11.944Z,58.27
2018-10-01T21:31:40.917Z,58.44
2018-10-01T21:34:09.557Z,59.17
2018-10-01T21:36:38.331Z,58.65
2018-10-01T21:39:09.244Z,58.66
2018-10-01T21:41:37.849Z,58.68
2018-10-01T21:44:06.486Z,58.78
2018-10-01T21:46:35.146Z,58.47
2018-10-01T21:49:03.879Z,58.26
2018-10-01T21:51:32.505Z,58.64
2018-10-01T21:54:01.100Z,57.94
2018-10-01T21:56:29.772Z,58.12
2018-10-01T21:58:58.361Z,58.28
2018-10-01T22:01:32.435Z,58.43
2018-10-01T22:04:01.725Z,58.43
2018-10-01T22:06:30.336Z,57.92
2018-10-01T22:08:59.088Z,57.69
2018-10-01T22:11:27.767Z,58.12
2018-10-01T22:13:56.727Z,58.25
2018-10-01T22:16:25.458Z,58.24
2018-10-01T22:18:54.141Z,57.79
2018-10-01T22:21:22.754Z,57.71
2018-10-01T22:23:51.487Z,56.81
2018-10-01T22:26:20.847Z,56.82
2018-10-01T22:28:50.063Z,56.95
2018-10-01T22:31:19.107Z,56.59
2018-10-01T22:33:47.688Z,56.75
2018-10-01T22:36:16.304Z,56.96
2018-10-01T22:38:45.069Z,57.06
2018-10-01T22:41:13.733Z,56.81
2018-10-01T22:43:42.310Z,56.94
2018-10-01T22:46:10.980Z,57.38
2018-10-01T22:48:39.646Z,56.83
2018-10-01T22:51:08.232Z,57.07
2018-10-01T22:53:36.868Z,56.91
2018-10-01T22:56:05.869Z,56.18
2018-10-01T22:58:34.556Z,56.70
2018-10-01T23:01:03.295Z,56.30
2018-10-01T23:03:31.894Z,56.11
2018-10-01T23:06:00.835Z,55.25
2018-10-01T23:08:29.908Z,55.85
2018-10-01T23:10:58.618Z,55.64
2018-10-01T23:13:27.561Z,55.32
2018-10-01T23:15:56.371Z,55.42
2018-10-01T23:18:24.972Z,54.76
2018-10-01T23:20:53.676Z,54.85
2018-10-01T23:23:22.328Z,55.56
2018-10-01T23:25:50.912Z,55.05
2018-10-01T23:28:19.512Z,55.60
2018-10-01T23:30:48.225Z,55.53
2018-10-01T23:33:16.819Z,55.63
2018-10-01T23:35:45.443Z,55.40
2018-10-01T23:38:14.179Z,55.38
2018-10-01T23:40:43.252Z,55.45
2018-10-01T23:43:12.488Z,55.27
2018-10-01T23:45:41.224Z,55.74
2018-10-01T23:48:09.796Z,55.98
2018-10-01T23:50:38.372Z,55.79
2018-10-01T23:53:07.038Z,56.23
2018-10-01T23:55:35.620Z,55.49
2018-10-01T23:58:04.271Z,55.81
